sensor_id;sensor_type;location;lat;lon;timestamp;temperature;humidity
2625;DHT22;1322;53.256;10.386;2023-08-21T00:02:22;21.50;99.90
2625;DHT22;1322;53.256;10.386;2023-08-21T00:04:47;21.50;99.90
2625;DHT22;1322;53.256;10.386;2023-08-21T00:07:13;21.50;99.90
2625;DHT22;1322;53.256;10.386;2023-08-21T00:09:39;21.40;99.90
2625;DHT22;1322;53.256;10.386;2023-08-21T00:12:05;21.40;99.90
2625;DHT22;1322;53.256;10.386;2023-08-21T00:14:31;21.40;99.90
2625;DHT22;1322;53.256;10.386;2023-08-21T00:16:57;21.30;99.90
2625;DHT22;1322;53.256;10.386;2023-08-21T00:19:22;21.30;99.90
2625;DHT22;1322;53.256;10.386;2023-08-21T00:21:48;21.30;99.90
2625;DHT22;1322;53.256;10.386;2023-08-21T00:24:14;21.20;99.90
2625;DHT22;1322;53.256;10.386;2023-08-21T00:26:39;21.20;99.90
2625;DHT22;1322;53.256;10.386;2023-08-21T00:29:05;21.10;99.90
2625;DHT22;1322;53.256;10.386;2023-08-21T00:31:30;21.10;99.90
2625;DHT22;1322;53.256;10.386;2023-08-21T00:33:56;21.10;99.90
2625;DHT22;1322;53.256;10.386;2023-08-21T00:36:22;21.00;99.90
2625;DHT22;1322;53.256;10.386;2023-08-21T00:38:47;21.00;99.90
2625;DHT22;1322;53.256;10.386;2023-08-21T00:41:13;21.00;99.90
2625;DHT22;1322;53.256;10.386;2023-08-21T00:43:39;20.90;99.90
2625;DHT22;1322;53.256;10.386;2023-08-21T00:46:05;20.90;99.90
2625;DHT22;1322;53.256;10.386;2023-08-21T00:48:31;20.90;99.90
2625;DHT22;1322;53.256;10.386;2023-08-21T00:50:57;20.80;99.90
2625;DHT22;1322;53.256;10.386;2023-08-21T00:53:24;20.80;99.90
2625;DHT22;1322;53.256;10.386;2023-08-21T00:55:50;20.80;99.90
2625;DHT22;1322;53.256;10.386;2023-08-21T00:58:16;20.70;99.90
2625;DHT22;1322;53.256;10.386;2023-08-21T01:00:45;20.70;99.90
2625;DHT22;1322;53.256;10.386;2023-08-21T01:03:10;20.70;99.90
2625;DHT22;1322;53.256;10.386;2023-08-21T01:05:36;20.60;99.90
2625;DHT22;1322;53.256;10.386;2023-08-21T01:08:06;20.60;99.90
2625;DHT22;1322;53.256;10.386;2023-08-21T01:10:36;20.60;99.90
2625;DHT22;1322;53.256;10.386;2023-08-21T02:23:27;19.80;99.90
2625;DHT22;1322;53.256;10.386;2023-08-21T02:25:54;19.70;99.90
2625;DHT22;1322;53.256;10.386;2023-08-21T02:28:20;19.70;99.90
2625;DHT22;1322;53.256;10.386;2023-08-21T02:30:46;19.70;99.90
2625;DHT22;1322;53.256;10.386;2023-08-21T02:33:11;19.70;99.90
2625;DHT22;1322;53.256;10.386;2023-08-21T02:35:37;19.70;99.90
2625;DHT22;1322;53.256;10.386;2023-08-21T02:38:03;19.70;99.90
2625;DHT22;1322;53.256;10.386;2023-08-21T02:40:28;19.70;99.90
2625;DHT22;1322;53.256;10.386;2023-08-21T02:42:54;19.70;99.90
2625;DHT22;1322;53.256;10.386;2023-08-21T02:45:19;19.70;99.90
2625;DHT22;1322;53.256;10.386;2023-08-21T02:47:45;19.70;99.90
2625;DHT22;1322;53.256;10.386;2023-08-21T02:50:11;19.70;99.90
2625;DHT22;1322;53.256;10.386;2023-08-21T02:52:37;19.70;99.90
2625;DHT22;1322;53.256;10.386;2023-08-21T02:55:03;19.70;99.90
2625;DHT22;1322;53.256;10.386;2023-08-21T02:57:30;19.70;99.90
2625;DHT22;1322;53.256;10.386;2023-08-21T02:59:56;19.70;99.90
2625;DHT22;1322;53.256;10.386;2023-08-21T03:02:22;19.70;99.90
2625;DHT22;1322;53.256;10.386;2023-08-21T03:04:48;19.70;99.90
2625;DHT22;1322;53.256;10.386;2023-08-21T03:07:14;19.60;99.90
2625;DHT22;1322;53.256;10.386;2023-08-21T03:09:40;19.60;99.90
2625;DHT22;1322;53.256;10.386;2023-08-21T03:12:07;19.60;99.90
2625;DHT22;1322;53.256;10.386;2023-08-21T03:14:33;19.60;99.90
2625;DHT22;1322;53.256;10.386;2023-08-21T03:16:58;19.50;99.90
2625;DHT22;1322;53.256;10.386;2023-08-21T03:19:24;19.50;99.90
2625;DHT22;1322;53.256;10.386;2023-08-21T03:21:49;19.50;99.90
2625;DHT22;1322;53.256;10.386;2023-08-21T03:24:15;19.40;99.90
2625;DHT22;1322;53.256;10.386;2023-08-21T03:26:41;19.50;99.90
2625;DHT22;1322;53.256;10.386;2023-08-21T03:29:06;19.50;99.90
2625;DHT22;1322;53.256;10.386;2023-08-21T03:31:32;19.50;99.90
2625;DHT22;1322;53.256;10.386;2023-08-21T03:33:58;19.40;99.90
2625;DHT22;1322;53.256;10.386;2023-08-21T03:36:24;19.40;99.90
2625;DHT22;1322;53.256;10.386;2023-08-21T03:39:00;19.30;99.90
2625;DHT22;1322;53.256;10.386;2023-08-21T03:41:26;19.30;99.90
2625;DHT22;1322;53.256;10.386;2023-08-21T03:43:51;19.20;99.90
2625;DHT22;1322;53.256;10.386;2023-08-21T03:46:17;19.20;99.90
2625;DHT22;1322;53.256;10.386;2023-08-21T03:48:43;19.20;99.90
2625;DHT22;1322;53.256;10.386;2023-08-21T03:51:08;19.20;99.90
2625;DHT22;1322;53.256;10.386;2023-08-21T03:53:34;19.20;99.90
2625;DHT22;1322;53.256;10.386;2023-08-21T03:56:00;19.20;99.90
2625;DHT22;1322;53.256;10.386;2023-08-21T03:58:25;19.20;99.90
2625;DHT22;1322;53.256;10.386;2023-08-21T04:00:52;19.10;99.90
2625;DHT22;1322;53.256;10.386;2023-08-21T04:03:18;19.10;99.90
2625;DHT22;1322;53.256;10.386;2023-08-21T04:05:44;19.20;99.90
2625;DHT22;1322;53.256;10.386;2023-08-21T04:08:09;19.20;99.90
2625;DHT22;1322;53.256;10.386;2023-08-21T04:10:35;19.20;99.90
2625;DHT22;1322;53.256;10.386;2023-08-21T04:13:01;19.20;99.90
2625;DHT22;1322;53.256;10.386;2023-08-21T04:15:26;19.20;99.90
2625;DHT22;1322;53.256;10.386;2023-08-21T04:17:52;19.20;99.90
2625;DHT22;1322;53.256;10.386;2023-08-21T04:20:19;19.20;99.90
2625;DHT22;1322;53.256;10.386;2023-08-21T04:22:45;19.30;99.90
2625;DHT22;1322;53.256;10.386;2023-08-21T04:25:11;19.30;99.90
2625;DHT22;1322;53.256;10.386;2023-08-21T04:27:37;19.30;99.90
2625;DHT22;1322;53.256;10.386;2023-08-21T04:30:03;19.30;99.90
2625;DHT22;1322;53.256;10.386;2023-08-21T04:32:30;19.30;99.90
2625;DHT22;1322;53.256;10.386;2023-08-21T04:34:56;19.30;99.90
2625;DHT22;1322;53.256;10.386;2023-08-21T04:37:21;19.30;99.90
2625;DHT22;1322;53.256;10.386;2023-08-21T04:39:51;19.30;99.90
2625;DHT22;1322;53.256;10.386;2023-08-21T04:42:17;19.40;99.90
2625;DHT22;1322;53.256;10.386;2023-08-21T04:44:43;19.40;99.90
2625;DHT22;1322;53.256;10.386;2023-08-21T04:47:22;19.40;99.90
2625;DHT22;1322;53.256;10.386;2023-08-21T04:49:52;19.50;99.90
2625;DHT22;1322;53.256;10.386;2023-08-21T04:52:18;19.50;99.90
2625;DHT22;1322;53.256;10.386;2023-08-21T04:54:44;19.50;99.90
2625;DHT22;1322;53.256;10.386;2023-08-21T04:57:10;19.50;99.90
2625;DHT22;1322;53.256;10.386;2023-08-21T04:59:36;19.50;99.90
2625;DHT22;1322;53.256;10.386;2023-08-21T05:02:02;19.40;99.90
2625;DHT22;1322;53.256;10.386;2023-08-21T05:04:28;19.40;99.90
2625;DHT22;1322;53.256;10.386;2023-08-21T05:06:54;19.40;99.90
2625;DHT22;1322;53.256;10.386;2023-08-21T05:09:22;19.50;99.90
2625;DHT22;1322;53.256;10.386;2023-08-21T05:11:48;19.60;99.90
2625;DHT22;1322;53.256;10.386;2023-08-21T05:14:13;19.80;99.90
2625;DHT22;1322;53.256;10.386;2023-08-21T05:16:39;20.00;99.90
2625;DHT22;1322;53.256;10.386;2023-08-21T05:19:05;20.20;99.90
2625;DHT22;1322;53.256;10.386;2023-08-21T05:21:30;20.40;99.90
2625;DHT22;1322;53.256;10.386;2023-08-21T05:23:56;20.50;99.90
2625;DHT22;1322;53.256;10.386;2023-08-21T05:26:22;20.70;99.90
2625;DHT22;1322;53.256;10.386;2023-08-21T05:28:50;20.80;99.90
2625;DHT22;1322;53.256;10.386;2023-08-21T05:31:16;21.00;99.90
2625;DHT22;1322;53.256;10.386;2023-08-21T05:33:43;21.20;99.90
2625;DHT22;1322;53.256;10.386;2023-08-21T05:36:09;21.30;99.90
2625;DHT22;1322;53.256;10.386;2023-08-21T05:38:35;21.40;99.90
2625;DHT22;1322;53.256;10.386;2023-08-21T05:41:00;21.40;99.90
2625;DHT22;1322;53.256;10.386;2023-08-21T05:43:26;21.60;99.90
2625;DHT22;1322;53.256;10.386;2023-08-21T05:45:52;21.70;99.90
2625;DHT22;1322;53.256;10.386;2023-08-21T05:48:17;21.80;99.90
2625;DHT22;1322;53.256;10.386;2023-08-21T05:50:43;22.00;99.90
2625;DHT22;1322;53.256;10.386;2023-08-21T05:53:08;22.20;99.90
2625;DHT22;1322;53.256;10.386;2023-08-21T05:55:36;22.30;99.90
2625;DHT22;1322;53.256;10.386;2023-08-21T05:58:02;22.40;99.90
2625;DHT22;1322;53.256;10.386;2023-08-21T06:00:28;22.40;99.90
2625;DHT22;1322;53.256;10.386;2023-08-21T06:02:53;22.60;99.90
2625;DHT22;1322;53.256;10.386;2023-08-21T06:05:19;22.70;99.90
2625;DHT22;1322;53.256;10.386;2023-08-21T06:07:45;22.80;99.90
2625;DHT22;1322;53.256;10.386;2023-08-21T06:10:10;22.90;99.90
2625;DHT22;1322;53.256;10.386;2023-08-21T06:12:41;22.90;99.90
2625;DHT22;1322;53.256;10.386;2023-08-21T06:15:08;23.00;99.90
2625;DHT22;1322;53.256;10.386;2023-08-21T06:17:38;22.90;99.90
2625;DHT22;1322;53.256;10.386;2023-08-21T06:20:05;23.00;99.90
2625;DHT22;1322;53.256;10.386;2023-08-21T06:22:32;23.10;99.90
2625;DHT22;1322;53.256;10.386;2023-08-21T06:24:57;23.20;99.90
2625;DHT22;1322;53.256;10.386;2023-08-21T06:27:23;23.30;99.90
2625;DHT22;1322;53.256;10.386;2023-08-21T06:29:49;23.50;99.90
2625;DHT22;1322;53.256;10.386;2023-08-21T06:32:14;23.60;99.90
2625;DHT22;1322;53.256;10.386;2023-08-21T06:34:40;23.70;99.90
2625;DHT22;1322;53.256;10.386;2023-08-21T06:37:05;23.90;99.90
2625;DHT22;1322;53.256;10.386;2023-08-21T06:39:31;24.00;99.90
2625;DHT22;1322;53.256;10.386;2023-08-21T06:41:57;24.10;99.90
2625;DHT22;1322;53.256;10.386;2023-08-21T06:44:22;24.10;99.90
2625;DHT22;1322;53.256;10.386;2023-08-21T06:46:48;24.10;99.90
2625;DHT22;1322;53.256;10.386;2023-08-21T06:49:14;24.20;99.90
2625;DHT22;1322;53.256;10.386;2023-08-21T06:51:39;24.50;99.90
2625;DHT22;1322;53.256;10.386;2023-08-21T06:54:08;24.70;99.90
2625;DHT22;1322;53.256;10.386;2023-08-21T06:56:36;24.90;99.90
2625;DHT22;1322;53.256;10.386;2023-08-21T06:59:02;24.90;99.90
2625;DHT22;1322;53.256;10.386;2023-08-21T07:01:28;24.90;99.90
2625;DHT22;1322;53.256;10.386;2023-08-21T07:03:54;25.00;99.90
2625;DHT22;1322;53.256;10.386;2023-08-21T07:06:19;25.10;99.90
2625;DHT22;1322;53.256;10.386;2023-08-21T07:08:45;25.20;99.90
2625;DHT22;1322;53.256;10.386;2023-08-21T07:11:11;25.30;99.90
2625;DHT22;1322;53.256;10.386;2023-08-21T07:13:38;25.20;99.90
2625;DHT22;1322;53.256;10.386;2023-08-21T07:16:04;25.20;99.90
2625;DHT22;1322;53.256;10.386;2023-08-21T07:18:34;25.20;99.90
2625;DHT22;1322;53.256;10.386;2023-08-21T07:21:04;25.30;99.90
2625;DHT22;1322;53.256;10.386;2023-08-21T07:23:30;25.30;99.90
2625;DHT22;1322;53.256;10.386;2023-08-21T07:25:57;25.30;99.90
2625;DHT22;1322;53.256;10.386;2023-08-21T07:28:23;25.30;99.90
2625;DHT22;1322;53.256;10.386;2023-08-21T07:30:55;25.20;99.90
2625;DHT22;1322;53.256;10.386;2023-08-21T07:33:21;25.30;99.90
2625;DHT22;1322;53.256;10.386;2023-08-21T07:35:47;25.30;99.90
2625;DHT22;1322;53.256;10.386;2023-08-21T07:38:12;25.20;99.90
2625;DHT22;1322;53.256;10.386;2023-08-21T07:40:38;25.00;99.90
2625;DHT22;1322;53.256;10.386;2023-08-21T07:43:03;25.00;99.90
2625;DHT22;1322;53.256;10.386;2023-08-21T07:45:29;25.00;99.90
2625;DHT22;1322;53.256;10.386;2023-08-21T07:47:54;24.90;99.90
2625;DHT22;1322;53.256;10.386;2023-08-21T07:50:20;24.90;99.90
2625;DHT22;1322;53.256;10.386;2023-08-21T07:52:46;24.90;99.90
2625;DHT22;1322;53.256;10.386;2023-08-21T07:55:12;24.90;99.90
2625;DHT22;1322;53.256;10.386;2023-08-21T07:57:38;24.80;99.90
2625;DHT22;1322;53.256;10.386;2023-08-21T08:00:04;24.80;99.90
2625;DHT22;1322;53.256;10.386;2023-08-21T08:02:33;24.90;99.90
2625;DHT22;1322;53.256;10.386;2023-08-21T08:04:59;25.00;99.90
2625;DHT22;1322;53.256;10.386;2023-08-21T08:07:25;25.10;99.90
2625;DHT22;1322;53.256;10.386;2023-08-21T08:09:51;25.20;99.90
2625;DHT22;1322;53.256;10.386;2023-08-21T08:12:16;25.20;99.90
2625;DHT22;1322;53.256;10.386;2023-08-21T08:14:43;25.30;99.90
2625;DHT22;1322;53.256;10.386;2023-08-21T08:17:08;25.10;99.90
2625;DHT22;1322;53.256;10.386;2023-08-21T08:19:34;25.00;99.90
2625;DHT22;1322;53.256;10.386;2023-08-21T08:21:59;25.00;99.90
2625;DHT22;1322;53.256;10.386;2023-08-21T08:24:25;25.10;99.90
2625;DHT22;1322;53.256;10.386;2023-08-21T08:26:50;25.10;99.90
2625;DHT22;1322;53.256;10.386;2023-08-21T08:29:16;24.90;99.90
2625;DHT22;1322;53.256;10.386;2023-08-21T08:31:42;25.00;99.90
2625;DHT22;1322;53.256;10.386;2023-08-21T08:34:07;25.10;99.90
2625;DHT22;1322;53.256;10.386;2023-08-21T08:36:33;25.20;99.90
2625;DHT22;1322;53.256;10.386;2023-08-21T08:38:58;25.30;99.90
2625;DHT22;1322;53.256;10.386;2023-08-21T08:41:54;25.40;99.90
2625;DHT22;1322;53.256;10.386;2023-08-21T08:44:24;25.50;99.90
2625;DHT22;1322;53.256;10.386;2023-08-21T08:46:50;25.40;99.90
2625;DHT22;1322;53.256;10.386;2023-08-21T08:49:16;25.30;99.90
2625;DHT22;1322;53.256;10.386;2023-08-21T08:51:43;25.30;99.90
2625;DHT22;1322;53.256;10.386;2023-08-21T08:54:09;25.30;99.90
2625;DHT22;1322;53.256;10.386;2023-08-21T08:56:37;25.30;99.90
2625;DHT22;1322;53.256;10.386;2023-08-21T08:59:03;25.30;99.90
2625;DHT22;1322;53.256;10.386;2023-08-21T09:01:29;25.30;99.90
2625;DHT22;1322;53.256;10.386;2023-08-21T09:03:54;25.30;99.90
2625;DHT22;1322;53.256;10.386;2023-08-21T09:06:20;25.40;99.90
2625;DHT22;1322;53.256;10.386;2023-08-21T09:08:56;25.60;99.90
2625;DHT22;1322;53.256;10.386;2023-08-21T09:11:22;25.80;99.90
2625;DHT22;1322;53.256;10.386;2023-08-21T09:13:52;25.90;99.90
2625;DHT22;1322;53.256;10.386;2023-08-21T09:16:18;26.00;99.90
2625;DHT22;1322;53.256;10.386;2023-08-21T09:18:52;26.10;99.90
2625;DHT22;1322;53.256;10.386;2023-08-21T09:21:21;26.10;99.90
2625;DHT22;1322;53.256;10.386;2023-08-21T09:23:47;25.90;99.90
2625;DHT22;1322;53.256;10.386;2023-08-21T09:26:20;25.90;99.90
2625;DHT22;1322;53.256;10.386;2023-08-21T09:28:47;25.90;99.90
2625;DHT22;1322;53.256;10.386;2023-08-21T09:31:13;25.90;99.90
2625;DHT22;1322;53.256;10.386;2023-08-21T09:33:39;25.70;99.90
2625;DHT22;1322;53.256;10.386;2023-08-21T09:36:05;25.80;99.90
2625;DHT22;1322;53.256;10.386;2023-08-21T09:38:31;25.70;99.90
2625;DHT22;1322;53.256;10.386;2023-08-21T09:40:59;25.70;99.90
2625;DHT22;1322;53.256;10.386;2023-08-21T09:43:25;25.60;99.90
2625;DHT22;1322;53.256;10.386;2023-08-21T09:45:53;25.60;99.90
2625;DHT22;1322;53.256;10.386;2023-08-21T09:48:25;25.60;99.90
2625;DHT22;1322;53.256;10.386;2023-08-21T09:50:55;25.80;99.90
2625;DHT22;1322;53.256;10.386;2023-08-21T09:53:22;25.90;99.90
2625;DHT22;1322;53.256;10.386;2023-08-21T09:55:52;25.90;99.90
2625;DHT22;1322;53.256;10.386;2023-08-21T09:58:19;25.90;99.90
2625;DHT22;1322;53.256;10.386;2023-08-21T10:00:45;26.00;99.90
2625;DHT22;1322;53.256;10.386;2023-08-21T10:03:14;26.00;99.90
2625;DHT22;1322;53.256;10.386;2023-08-21T10:05:42;26.00;99.90
2625;DHT22;1322;53.256;10.386;2023-08-21T10:08:09;26.00;99.90
2625;DHT22;1322;53.256;10.386;2023-08-21T10:10:37;26.10;99.90
2625;DHT22;1322;53.256;10.386;2023-08-21T10:13:03;26.20;99.90
2625;DHT22;1322;53.256;10.386;2023-08-21T10:15:33;26.30;99.90
2625;DHT22;1322;53.256;10.386;2023-08-21T10:18:23;26.30;99.90
2625;DHT22;1322;53.256;10.386;2023-08-21T10:20:50;26.00;99.90
2625;DHT22;1322;53.256;10.386;2023-08-21T10:23:26;25.80;99.90
2625;DHT22;1322;53.256;10.386;2023-08-21T10:26:00;25.70;99.90
2625;DHT22;1322;53.256;10.386;2023-08-21T10:28:50;25.70;99.90
2625;DHT22;1322;53.256;10.386;2023-08-21T10:31:26;25.60;99.90
2625;DHT22;1322;53.256;10.386;2023-08-21T10:33:52;25.60;99.90
2625;DHT22;1322;53.256;10.386;2023-08-21T10:37:03;25.60;99.90
2625;DHT22;1322;53.256;10.386;2023-08-21T10:39:29;25.50;99.90
2625;DHT22;1322;53.256;10.386;2023-08-21T10:42:07;25.50;99.90
2625;DHT22;1322;53.256;10.386;2023-08-21T10:47:23;25.30;99.90
2625;DHT22;1322;53.256;10.386;2023-08-21T10:54:56;25.60;99.90
2625;DHT22;1322;53.256;10.386;2023-08-21T10:57:23;25.50;99.90
2625;DHT22;1322;53.256;10.386;2023-08-21T11:00:09;25.40;99.90
2625;DHT22;1322;53.256;10.386;2023-08-21T11:02:38;25.30;99.90
2625;DHT22;1322;53.256;10.386;2023-08-21T11:05:04;25.30;99.90
2625;DHT22;1322;53.256;10.386;2023-08-21T11:07:35;25.50;99.90
2625;DHT22;1322;53.256;10.386;2023-08-21T11:10:01;25.60;99.90
2625;DHT22;1322;53.256;10.386;2023-08-21T11:12:28;25.50;99.90
2625;DHT22;1322;53.256;10.386;2023-08-21T11:14:54;25.50;99.90
2625;DHT22;1322;53.256;10.386;2023-08-21T11:17:19;25.50;99.90
2625;DHT22;1322;53.256;10.386;2023-08-21T11:19:45;25.60;99.90
2625;DHT22;1322;53.256;10.386;2023-08-21T11:22:13;25.80;99.90
2625;DHT22;1322;53.256;10.386;2023-08-21T11:24:40;25.80;99.90
2625;DHT22;1322;53.256;10.386;2023-08-21T11:27:09;25.80;99.90
2625;DHT22;1322;53.256;10.386;2023-08-21T11:29:40;25.60;99.90
2625;DHT22;1322;53.256;10.386;2023-08-21T11:32:13;25.50;99.90
2625;DHT22;1322;53.256;10.386;2023-08-21T11:34:41;25.50;99.90
2625;DHT22;1322;53.256;10.386;2023-08-21T11:37:07;25.50;99.90
2625;DHT22;1322;53.256;10.386;2023-08-21T11:40:07;25.50;99.90
2625;DHT22;1322;53.256;10.386;2023-08-21T11:42:33;25.50;99.90
2625;DHT22;1322;53.256;10.386;2023-08-21T11:45:00;25.60;99.90
2625;DHT22;1322;53.256;10.386;2023-08-21T11:47:31;25.70;99.90
2625;DHT22;1322;53.256;10.386;2023-08-21T11:49:58;25.80;99.90
2625;DHT22;1322;53.256;10.386;2023-08-21T11:52:29;25.90;99.90
2625;DHT22;1322;53.256;10.386;2023-08-21T11:54:57;25.80;99.90
2625;DHT22;1322;53.256;10.386;2023-08-21T11:57:23;25.90;99.90
2625;DHT22;1322;53.256;10.386;2023-08-21T11:59:50;26.10;99.90
2625;DHT22;1322;53.256;10.386;2023-08-21T12:02:25;26.10;99.90
2625;DHT22;1322;53.256;10.386;2023-08-21T12:07:19;26.20;99.90
2625;DHT22;1322;53.256;10.386;2023-08-21T12:09:49;26.30;99.90
2625;DHT22;1322;53.256;10.386;2023-08-21T12:12:15;26.50;99.90
2625;DHT22;1322;53.256;10.386;2023-08-21T12:14:41;26.50;99.90
2625;DHT22;1322;53.256;10.386;2023-08-21T12:17:06;26.50;99.90
2625;DHT22;1322;53.256;10.386;2023-08-21T12:19:32;26.40;99.90
2625;DHT22;1322;53.256;10.386;2023-08-21T12:21:58;26.40;99.90
2625;DHT22;1322;53.256;10.386;2023-08-21T12:24:24;26.30;99.90
2625;DHT22;1322;53.256;10.386;2023-08-21T12:26:50;26.40;99.90
2625;DHT22;1322;53.256;10.386;2023-08-21T12:29:15;26.50;99.90
2625;DHT22;1322;53.256;10.386;2023-08-21T12:31:41;26.50;99.90
2625;DHT22;1322;53.256;10.386;2023-08-21T12:34:07;26.50;99.90
2625;DHT22;1322;53.256;10.386;2023-08-21T12:36:36;26.50;99.90
2625;DHT22;1322;53.256;10.386;2023-08-21T12:39:05;26.50;99.90
2625;DHT22;1322;53.256;10.386;2023-08-21T12:41:32;26.50;99.90
2625;DHT22;1322;53.256;10.386;2023-08-21T12:44:01;26.60;99.90
2625;DHT22;1322;53.256;10.386;2023-08-21T12:46:29;26.60;99.90
2625;DHT22;1322;53.256;10.386;2023-08-21T12:48:56;26.70;99.90
2625;DHT22;1322;53.256;10.386;2023-08-21T12:51:22;26.60;99.90
2625;DHT22;1322;53.256;10.386;2023-08-21T12:53:47;26.50;99.90
2625;DHT22;1322;53.256;10.386;2023-08-21T12:56:13;26.50;99.90
2625;DHT22;1322;53.256;10.386;2023-08-21T12:58:39;26.30;99.90
2625;DHT22;1322;53.256;10.386;2023-08-21T13:01:04;26.10;99.90
2625;DHT22;1322;53.256;10.386;2023-08-21T13:03:32;26.10;99.90
2625;DHT22;1322;53.256;10.386;2023-08-21T13:05:58;26.10;99.90
2625;DHT22;1322;53.256;10.386;2023-08-21T13:08:24;26.10;99.90
2625;DHT22;1322;53.256;10.386;2023-08-21T13:10:49;26.10;99.90
2625;DHT22;1322;53.256;10.386;2023-08-21T13:13:15;26.30;99.90
2625;DHT22;1322;53.256;10.386;2023-08-21T13:15:41;26.30;99.90
2625;DHT22;1322;53.256;10.386;2023-08-21T13:18:10;26.30;99.90
2625;DHT22;1322;53.256;10.386;2023-08-21T13:20:36;26.20;99.90
2625;DHT22;1322;53.256;10.386;2023-08-21T13:23:02;26.10;99.90
2625;DHT22;1322;53.256;10.386;2023-08-21T13:25:28;26.00;99.90
2625;DHT22;1322;53.256;10.386;2023-08-21T13:27:54;26.10;99.90
2625;DHT22;1322;53.256;10.386;2023-08-21T13:30:20;26.10;99.90
2625;DHT22;1322;53.256;10.386;2023-08-21T13:32:46;26.10;99.90
2625;DHT22;1322;53.256;10.386;2023-08-21T13:35:12;26.10;99.90
2625;DHT22;1322;53.256;10.386;2023-08-21T13:37:38;26.20;99.90
2625;DHT22;1322;53.256;10.386;2023-08-21T13:40:05;26.30;99.90
2625;DHT22;1322;53.256;10.386;2023-08-21T13:42:38;26.20;99.90
2625;DHT22;1322;53.256;10.386;2023-08-21T13:45:10;26.30;99.90
2625;DHT22;1322;53.256;10.386;2023-08-21T13:47:41;26.20;99.90
2625;DHT22;1322;53.256;10.386;2023-08-21T13:50:08;26.20;99.90
2625;DHT22;1322;53.256;10.386;2023-08-21T13:52:34;26.20;99.90
2625;DHT22;1322;53.256;10.386;2023-08-21T13:55:00;26.20;99.90
2625;DHT22;1322;53.256;10.386;2023-08-21T13:57:26;26.30;99.90
2625;DHT22;1322;53.256;10.386;2023-08-21T13:59:52;26.30;99.90
2625;DHT22;1322;53.256;10.386;2023-08-21T14:02:18;26.30;99.90
2625;DHT22;1322;53.256;10.386;2023-08-21T14:04:44;26.30;99.90
2625;DHT22;1322;53.256;10.386;2023-08-21T14:07:10;26.30;99.90
2625;DHT22;1322;53.256;10.386;2023-08-21T14:09:36;26.20;99.90
2625;DHT22;1322;53.256;10.386;2023-08-21T14:12:02;26.10;99.90
2625;DHT22;1322;53.256;10.386;2023-08-21T14:14:28;26.10;99.90
2625;DHT22;1322;53.256;10.386;2023-08-21T14:16:53;26.10;99.90
2625;DHT22;1322;53.256;10.386;2023-08-21T14:19:19;26.10;99.90
2625;DHT22;1322;53.256;10.386;2023-08-21T14:21:44;26.10;99.90
2625;DHT22;1322;53.256;10.386;2023-08-21T14:24:10;26.10;99.90
2625;DHT22;1322;53.256;10.386;2023-08-21T14:26:36;26.10;99.90
2625;DHT22;1322;53.256;10.386;2023-08-21T14:29:01;26.00;99.90
2625;DHT22;1322;53.256;10.386;2023-08-21T14:31:27;26.00;99.90
2625;DHT22;1322;53.256;10.386;2023-08-21T14:33:53;26.00;99.90
2625;DHT22;1322;53.256;10.386;2023-08-21T14:36:18;26.10;99.90
2625;DHT22;1322;53.256;10.386;2023-08-21T14:38:45;26.10;99.90
2625;DHT22;1322;53.256;10.386;2023-08-21T14:41:10;26.00;99.90
2625;DHT22;1322;53.256;10.386;2023-08-21T14:43:36;26.00;99.90
2625;DHT22;1322;53.256;10.386;2023-08-21T14:46:01;25.90;99.90
2625;DHT22;1322;53.256;10.386;2023-08-21T14:48:29;26.00;99.90
2625;DHT22;1322;53.256;10.386;2023-08-21T14:50:55;25.90;99.90
2625;DHT22;1322;53.256;10.386;2023-08-21T14:53:20;25.90;99.90
2625;DHT22;1322;53.256;10.386;2023-08-21T14:55:46;25.90;99.90
2625;DHT22;1322;53.256;10.386;2023-08-21T14:58:11;25.70;99.90
2625;DHT22;1322;53.256;10.386;2023-08-21T15:00:37;25.60;99.90
2625;DHT22;1322;53.256;10.386;2023-08-21T15:03:03;25.50;99.90
2625;DHT22;1322;53.256;10.386;2023-08-21T15:05:29;25.50;99.90
2625;DHT22;1322;53.256;10.386;2023-08-21T15:07:55;25.40;99.90
2625;DHT22;1322;53.256;10.386;2023-08-21T15:10:21;25.40;99.90
2625;DHT22;1322;53.256;10.386;2023-08-21T15:12:47;25.40;99.90
2625;DHT22;1322;53.256;10.386;2023-08-21T15:15:12;25.50;99.90
2625;DHT22;1322;53.256;10.386;2023-08-21T15:17:38;25.60;99.90
2625;DHT22;1322;53.256;10.386;2023-08-21T15:20:04;25.50;99.90
2625;DHT22;1322;53.256;10.386;2023-08-21T15:22:33;25.50;99.90
2625;DHT22;1322;53.256;10.386;2023-08-21T15:24:59;25.50;99.90
2625;DHT22;1322;53.256;10.386;2023-08-21T15:27:24;25.40;99.90
2625;DHT22;1322;53.256;10.386;2023-08-21T15:29:50;25.40;99.90
2625;DHT22;1322;53.256;10.386;2023-08-21T15:32:16;25.40;99.90
2625;DHT22;1322;53.256;10.386;2023-08-21T15:34:42;25.40;99.90
2625;DHT22;1322;53.256;10.386;2023-08-21T15:37:07;25.50;99.90
2625;DHT22;1322;53.256;10.386;2023-08-21T15:39:34;25.60;99.90
2625;DHT22;1322;53.256;10.386;2023-08-21T15:41:59;25.60;99.90
2625;DHT22;1322;53.256;10.386;2023-08-21T15:44:25;25.60;99.90
2625;DHT22;1322;53.256;10.386;2023-08-21T15:46:51;25.50;99.90
2625;DHT22;1322;53.256;10.386;2023-08-21T15:49:16;25.40;99.90
2625;DHT22;1322;53.256;10.386;2023-08-21T15:51:45;25.50;99.90
2625;DHT22;1322;53.256;10.386;2023-08-21T15:54:10;25.40;99.90
2625;DHT22;1322;53.256;10.386;2023-08-21T15:56:36;25.40;99.90
2625;DHT22;1322;53.256;10.386;2023-08-21T15:59:02;25.40;99.90
2625;DHT22;1322;53.256;10.386;2023-08-21T16:01:27;25.40;99.90
2625;DHT22;1322;53.256;10.386;2023-08-21T16:03:53;25.40;99.90
2625;DHT22;1322;53.256;10.386;2023-08-21T16:06:19;25.30;99.90
2625;DHT22;1322;53.256;10.386;2023-08-21T16:08:44;25.20;99.90
2625;DHT22;1322;53.256;10.386;2023-08-21T16:11:10;25.20;99.90
2625;DHT22;1322;53.256;10.386;2023-08-21T16:13:35;25.20;99.90
2625;DHT22;1322;53.256;10.386;2023-08-21T16:16:01;25.20;99.90
2625;DHT22;1322;53.256;10.386;2023-08-21T16:18:27;25.30;99.90
2625;DHT22;1322;53.256;10.386;2023-08-21T16:20:53;25.20;99.90
2625;DHT22;1322;53.256;10.386;2023-08-21T16:23:19;25.30;99.90
2625;DHT22;1322;53.256;10.386;2023-08-21T16:25:44;25.20;99.90
2625;DHT22;1322;53.256;10.386;2023-08-21T16:28:10;25.20;99.90
2625;DHT22;1322;53.256;10.386;2023-08-21T16:30:35;25.30;99.90
2625;DHT22;1322;53.256;10.386;2023-08-21T16:33:02;25.10;99.90
2625;DHT22;1322;53.256;10.386;2023-08-21T16:35:29;25.20;99.90
2625;DHT22;1322;53.256;10.386;2023-08-21T16:37:54;25.10;99.90
2625;DHT22;1322;53.256;10.386;2023-08-21T16:40:20;25.10;99.90
2625;DHT22;1322;53.256;10.386;2023-08-21T16:42:48;25.10;99.90
2625;DHT22;1322;53.256;10.386;2023-08-21T16:45:14;25.10;99.90
2625;DHT22;1322;53.256;10.386;2023-08-21T16:47:41;25.10;99.90
2625;DHT22;1322;53.256;10.386;2023-08-21T16:50:07;25.00;99.90
2625;DHT22;1322;53.256;10.386;2023-08-21T16:52:33;25.00;99.90
2625;DHT22;1322;53.256;10.386;2023-08-21T16:54:58;25.00;99.90
2625;DHT22;1322;53.256;10.386;2023-08-21T16:57:24;25.00;99.90
2625;DHT22;1322;53.256;10.386;2023-08-21T16:59:49;25.00;99.90
2625;DHT22;1322;53.256;10.386;2023-08-21T17:02:15;24.90;99.90
2625;DHT22;1322;53.256;10.386;2023-08-21T17:04:46;24.90;99.90